Time;durP1;ratioP1;P1;durP2;ratioP2;P2;SDS_P1;SDS_P2;PMS_P1;PMS_P2;Temp;Humidity;BMP_temperature;BMP_pressure;BME280_temperature;BME280_humidity;BME280_pressure;Samples;Min_cycle;Max_cycle;Signal;HPM_P1;HPM_P2
2021/01/14 00:00:34;;;;;;;5.28;2.67;;;;;;;1.88;87.34;98774.75;5097659;28;20040;-81
2021/01/14 00:03:03;;;;;;;5.13;3.05;;;;;;;1.80;87.73;98771.06;5099392;28;20043;-80
2021/01/14 00:05:29;;;;;;;5.00;2.85;;;;;;;1.71;87.71;98768.22;5098655;28;20043;-81
2021/01/14 00:08:06;;;;;;;4.22;3.00;;;;;;;1.86;87.14;98791.97;5098744;28;20056;-80
2021/01/14 00:10:36;;;;;;;3.88;2.83;;;;;;;1.73;86.86;98770.75;5102121;28;20047;-80
2021/01/14 00:13:03;;;;;;;5.38;3.58;;;;;;;1.64;87.02;98755.50;5101884;28;20092;-80
2021/01/14 00:15:40;;;;;;;7.82;3.58;;;;;;;1.58;87.72;98762.25;5111504;28;20051;-80
2021/01/14 00:18:08;;;;;;;4.47;3.45;;;;;;;1.79;87.07;98799.69;5099592;28;20075;-80
2021/01/14 00:20:34;;;;;;;4.80;2.72;;;;;;;1.80;87.12;98787.16;5092726;28;20492;-80
2021/01/14 00:23:00;;;;;;;4.28;2.47;;;;;;;1.85;87.05;98777.72;5110730;28;20055;-80
2021/01/14 00:25:27;;;;;;;4.82;3.00;;;;;;;1.81;87.31;98775.44;5111870;28;20044;-80
2021/01/14 00:27:53;;;;;;;5.45;2.97;;;;;;;1.69;87.93;98772.88;5107019;28;20048;-80
2021/01/14 00:30:26;;;;;;;2.50;1.67;;;;;;;1.77;87.40;98794.47;5117743;28;20052;-81
2021/01/14 00:32:52;;;;;;;6.85;3.60;;;;;;;1.71;87.43;98797.69;5113334;28;20044;-80
2021/01/14 00:35:20;;;;;;;7.88;3.80;;;;;;;1.67;87.53;98785.59;5111940;28;20050;-80
2021/01/14 00:37:51;;;;;;;5.03;3.45;;;;;;;1.63;87.36;98764.56;5097430;28;20044;-81
2021/01/14 00:40:39;;;;;;;6.88;4.15;;;;;;;1.72;87.92;98787.84;5095858;28;20082;-81
2021/01/14 00:43:31;;;;;;;7.60;3.88;;;;;;;1.64;88.31;98768.91;5089522;28;20048;-80
2021/01/14 00:45:57;;;;;;;6.70;4.30;;;;;;;1.63;88.66;98764.56;5111032;28;20087;-80
2021/01/14 00:48:24;;;;;;;7.00;4.70;;;;;;;1.73;88.50;98784.16;5109834;28;20093;-80
2021/01/14 00:50:52;;;;;;;5.28;3.72;;;;;;;1.56;88.97;98778.47;5105671;28;20043;-80
2021/01/14 00:53:18;;;;;;;7.45;4.60;;;;;;;1.73;88.53;98802.91;5091911;28;20183;-79
2021/01/14 00:55:45;;;;;;;11.13;4.25;;;;;;;1.71;88.76;98811.09;5096515;28;20051;-80
2021/01/14 00:58:13;;;;;;;11.25;3.90;;;;;;;1.68;88.29;98814.06;5109634;28;20544;-83
2021/01/14 01:00:39;;;;;;;6.80;3.75;;;;;;;1.70;88.71;98817.47;5098949;28;20060;-80
2021/01/14 01:03:05;;;;;;;6.85;4.28;;;;;;;1.67;88.57;98809.69;5107975;28;20048;-80
2021/01/14 01:05:32;;;;;;;7.28;4.00;;;;;;;1.50;89.01;98789.75;5115945;28;20051;-80
2021/01/14 01:07:59;;;;;;;6.65;4.60;;;;;;;1.68;88.24;98803.34;5111907;28;20082;-80
2021/01/14 01:10:26;;;;;;;8.75;4.43;;;;;;;1.54;88.49;98776.94;5096273;28;20048;-80
2021/01/14 01:12:53;;;;;;;6.97;4.10;;;;;;;1.68;88.14;98811.38;5100436;28;20043;-80
2021/01/14 01:15:32;;;;;;;5.60;3.78;;;;;;;1.65;87.81;98797.41;5115628;28;20419;-80
2021/01/14 01:18:06;;;;;;;6.37;3.47;;;;;;;1.70;87.35;98809.44;5104108;28;20052;-80
2021/01/14 01:20:33;;;;;;;6.93;4.22;;;;;;;1.69;86.70;98805.03;5094422;28;20046;-80
2021/01/14 01:23:00;;;;;;;7.00;3.70;;;;;;;1.65;86.68;98814.34;5111134;28;20350;-81
2021/01/14 01:25:26;;;;;;;5.35;3.22;;;;;;;1.66;87.16;98826.75;5105825;28;20052;-80
2021/01/14 01:27:55;;;;;;;7.47;4.97;;;;;;;1.57;86.74;98795.41;5109718;28;20044;-80
2021/01/14 01:30:21;;;;;;;6.07;3.63;;;;;;;1.63;87.41;98819.00;5105845;27;20043;-80
2021/01/14 01:32:49;;;;;;;4.93;3.72;;;;;;;1.64;86.38;98823.38;5097012;28;20105;-80
2021/01/14 01:35:15;;;;;;;8.75;3.90;;;;;;;1.55;86.57;98811.63;5094057;28;20048;-79
2021/01/14 01:37:42;;;;;;;5.90;3.15;;;;;;;1.67;86.56;98822.22;5108006;28;20073;-80
2021/01/14 01:40:14;;;;;;;8.40;4.53;;;;;;;1.66;86.66;98820.56;5095080;28;20059;-79
2021/01/14 01:42:40;;;;;;;6.05;3.85;;;;;;;1.58;86.38;98823.88;5104059;27;20048;-80
2021/01/14 01:45:11;;;;;;;6.55;3.53;;;;;;;1.61;86.23;98839.69;5112117;28;20563;-80
2021/01/14 01:47:39;;;;;;;6.03;3.70;;;;;;;1.62;86.12;98840.56;5115512;28;20048;-80
2021/01/14 01:50:07;;;;;;;8.18;3.33;;;;;;;1.56;86.10;98836.59;5125136;27;20055;-80
2021/01/14 01:52:34;;;;;;;4.03;2.40;;;;;;;1.62;85.58;98846.75;5095706;28;20059;-79
2021/01/14 01:55:01;;;;;;;6.22;2.80;;;;;;;1.49;85.51;98827.38;5103061;28;20051;-79
2021/01/14 01:57:28;;;;;;;6.72;2.70;;;;;;;1.55;85.30;98833.06;5123587;27;20047;-79
2021/01/14 01:59:55;;;;;;;4.65;2.63;;;;;;;1.58;84.50;98824.75;5113927;27;20502;-80
2021/01/14 02:02:23;;;;;;;6.10;3.05;;;;;;;1.68;84.14;98843.53;5095638;28;20442;-79
2021/01/14 02:04:50;;;;;;;5.03;2.17;;;;;;;1.69;84.36;98841.72;5095710;28;20112;-80
2021/01/14 02:07:40;;;;;;;4.07;2.67;;;;;;;1.71;83.99;98845.09;5095991;28;20126;-80
2021/01/14 02:10:28;;;;;;;6.43;3.40;;;;;;;1.61;83.82;98853.09;5096678;28;20131;-80
2021/01/14 02:13:05;;;;;;;4.57;2.58;;;;;;;1.64;83.42;98843.94;5115068;27;20100;-79
2021/01/14 02:15:32;;;;;;;3.45;2.42;;;;;;;1.71;83.77;98859.34;5101750;28;20060;-80
2021/01/14 02:17:59;;;;;;;3.67;2.35;;;;;;;1.71;83.43;98858.50;5112488;28;20059;-79
2021/01/14 02:20:26;;;;;;;7.22;2.50;;;;;;;1.53;83.54;98844.91;5099828;28;20093;-80
2021/01/14 02:22:58;;;;;;;3.78;2.70;;;;;;;1.71;83.39;98861.19;5095821;28;20473;-80
2021/01/14 02:25:28;;;;;;;3.05;1.98;;;;;;;1.68;83.01;98875.69;5109886;28;20096;-80
2021/01/14 02:27:57;;;;;;;3.30;2.30;;;;;;;1.64;83.31;98863.56;5115942;28;20043;-80
2021/01/14 02:30:24;;;;;;;4.97;2.33;;;;;;;1.71;82.78;98878.09;5121556;27;20096;-80
2021/01/14 02:32:50;;;;;;;4.50;2.88;;;;;;;1.51;83.55;98853.06;5110852;28;20043;-80
2021/01/14 02:35:16;;;;;;;5.07;2.65;;;;;;;1.59;83.33;98863.09;5115296;28;20104;-80
2021/01/14 02:37:43;;;;;;;6.20;2.60;;;;;;;1.71;83.32;98874.59;5101249;28;20487;-80
2021/01/14 02:40:10;;;;;;;5.78;2.28;;;;;;;1.70;83.17;98868.38;5095401;28;20048;-79
2021/01/14 02:42:37;;;;;;;3.85;1.70;;;;;;;1.73;82.89;98877.97;5106732;28;20092;-79
2021/01/14 02:45:05;;;;;;;5.00;2.92;;;;;;;1.67;83.62;98879.38;5098500;27;20051;-80
2021/01/14 02:47:34;;;;;;;3.25;2.47;;;;;;;1.68;83.61;98880.22;5116237;27;20047;-79
2021/01/14 02:50:05;;;;;;;3.58;2.33;;;;;;;1.71;83.48;98890.66;5116059;27;20040;-80
2021/01/14 02:52:33;;;;;;;2.88;2.25;;;;;;;1.64;83.94;98874.28;5118961;27;20601;-79
2021/01/14 02:55:01;;;;;;;7.38;2.78;;;;;;;1.66;84.29;98883.03;5119470;27;20039;-79
2021/01/14 02:57:28;;;;;;;3.08;2.00;;;;;;;1.70;84.10;98887.16;5116194;27;20047;-79
2021/01/14 02:59:54;;;;;;;6.50;2.72;;;;;;;1.74;83.93;98887.72;5115183;28;20044;-79
2021/01/14 03:02:22;;;;;;;6.55;2.78;;;;;;;1.61;84.54;98866.50;5097257;28;20096;-80
2021/01/14 03:04:48;;;;;;;3.25;2.20;;;;;;;1.62;84.99;98873.56;5111852;28;20545;-80
2021/01/14 03:07:15;;;;;;;5.82;2.88;;;;;;;1.74;84.34;98887.72;5114952;28;20044;-79
2021/01/14 03:09:41;;;;;;;4.88;2.30;;;;;;;1.65;84.58;98877.81;5096365;28;20048;-80
2021/01/14 03:12:08;;;;;;;5.47;3.92;;;;;;;1.71;84.14;98896.84;5094495;28;20047;-79
2021/01/14 03:14:34;;;;;;;9.30;2.83;;;;;;;1.66;84.94;98890.22;5110280;28;20047;-79
2021/01/14 03:17:00;;;;;;;4.88;2.70;;;;;;;1.51;85.15;98890.56;5104826;27;20058;-80
2021/01/14 03:19:27;;;;;;;6.28;3.00;;;;;;;1.67;85.47;98894.59;5118140;27;20495;-80
2021/01/14 03:21:59;;;;;;;7.70;2.55;;;;;;;1.54;85.57;98868.88;5112674;28;20044;-80
2021/01/14 03:24:25;;;;;;;5.18;2.58;;;;;;;1.56;85.76;98892.84;5114055;28;20123;-80
2021/01/14 03:26:51;;;;;;;4.10;2.42;;;;;;;1.54;86.59;98900.19;5110199;28;20047;-80
2021/01/14 03:29:17;;;;;;;6.30;3.78;;;;;;;1.57;86.31;98889.19;5120333;27;20657;-80
2021/01/14 03:31:44;;;;;;;5.15;3.13;;;;;;;1.49;86.63;98886.31;5111889;28;20056;-80
2021/01/14 03:34:10;;;;;;;6.07;3.50;;;;;;;1.53;86.68;98885.09;5101007;27;20046;-80
2021/01/14 03:36:56;;;;;;;7.85;3.83;;;;;;;1.52;86.77;98888.75;5113637;28;20059;-80
2021/01/14 03:39:23;;;;;;;5.88;3.38;;;;;;;1.37;86.20;98870.34;5116035;27;20107;-80
2021/01/14 03:41:49;;;;;;;6.20;2.90;;;;;;;1.53;86.42;98895.81;5135067;27;20085;-81
2021/01/14 03:44:15;;;;;;;6.57;3.55;;;;;;;1.52;85.96;98891.41;5132811;27;20050;-79
2021/01/14 03:46:45;;;;;;;5.30;3.17;;;;;;;1.53;86.20;98909.19;5118226;27;20388;-80
2021/01/14 03:49:11;;;;;;;3.80;2.95;;;;;;;1.41;86.81;98895.03;5113230;28;20059;-80
2021/01/14 03:51:39;;;;;;;8.38;3.97;;;;;;;1.52;86.23;98903.00;5109081;28;20056;-80
2021/01/14 03:54:05;;;;;;;6.68;3.30;;;;;;;1.44;86.26;98896.59;5108862;28;20055;-79
2021/01/14 03:56:36;;;;;;;8.02;3.40;;;;;;;1.49;86.50;98916.66;5106264;28;20039;-80
2021/01/14 03:59:02;;;;;;;6.03;3.60;;;;;;;1.38;86.55;98893.47;5094392;28;20044;-80
2021/01/14 04:01:28;;;;;;;7.07;3.83;;;;;;;1.35;86.90;98899.09;5093330;28;20496;-80
2021/01/14 04:03:55;;;;;;;6.60;3.28;;;;;;;1.40;86.98;98907.59;5104601;28;20051;-79
2021/01/14 04:06:30;;;;;;;6.03;3.35;;;;;;;1.38;86.12;98916.72;5111212;27;20050;-80
2021/01/14 04:08:58;;;;;;;5.55;3.40;;;;;;;1.36;86.72;98919.53;5124840;27;20051;-80
2021/01/14 04:11:24;;;;;;;11.38;3.33;;;;;;;1.31;87.12;98920.91;5113978;28;20104;-79
2021/01/14 04:13:50;;;;;;;5.47;3.35;;;;;;;1.32;87.39;98930.66;5112334;28;20050;-79
2021/01/14 04:16:16;;;;;;;7.63;4.00;;;;;;;1.35;86.81;98931.22;5092610;28;20070;-79
2021/01/14 04:18:43;;;;;;;3.88;2.63;;;;;;;1.30;86.61;98922.75;5097684;28;20052;-79
2021/01/14 04:21:09;;;;;;;5.13;3.55;;;;;;;1.21;86.70;98920.88;5094634;28;20487;-80
2021/01/14 04:23:36;;;;;;;5.53;3.75;;;;;;;1.32;86.58;98942.22;5101663;28;20043;-80
2021/01/14 04:26:03;;;;;;;3.92;3.03;;;;;;;1.22;86.54;98946.69;5112385;28;20054;-80
2021/01/14 04:28:29;;;;;;;8.85;3.58;;;;;;;1.33;86.55;98965.34;5110945;28;20380;-79
2021/01/14 04:30:55;;;;;;;9.38;3.50;;;;;;;1.22;86.53;98946.69;5093267;28;20048;-79
2021/01/14 04:33:21;;;;;;;4.88;2.95;;;;;;;1.24;86.88;98952.75;5093482;28;20056;-80
2021/01/14 04:35:50;;;;;;;11.65;3.88;;;;;;;1.27;86.66;98957.84;5117484;28;20040;-80
2021/01/14 04:38:18;;;;;;;6.53;4.28;;;;;;;1.14;87.09;98946.47;5099265;28;20055;-80
2021/01/14 04:40:44;;;;;;;4.35;2.72;;;;;;;1.18;87.07;98961.28;5097583;28;20051;-79
2021/01/14 04:43:13;;;;;;;5.32;3.22;;;;;;;1.16;87.18;98958.75;5103648;28;20089;-80
2021/01/14 04:45:40;;;;;;;7.07;3.40;;;;;;;0.96;87.23;98948.88;5109960;28;20054;-79
2021/01/14 04:48:07;;;;;;;5.75;3.20;;;;;;;0.99;87.39;98948.59;5117883;27;20412;-80
2021/01/14 04:50:34;;;;;;;8.55;3.40;;;;;;;1.00;87.72;98947.63;5108967;28;20039;-79
2021/01/14 04:53:01;;;;;;;8.10;3.55;;;;;;;1.12;87.58;98968.00;5116856;28;20052;-80
2021/01/14 04:55:29;;;;;;;6.47;3.60;;;;;;;1.02;87.79;98959.06;5105572;28;20511;-79
2021/01/14 04:57:56;;;;;;;7.80;3.30;;;;;;;1.07;87.32;98967.56;5096908;28;20139;-80
2021/01/14 05:00:26;;;;;;;6.63;3.92;;;;;;;1.07;87.69;98970.25;5115706;27;20441;-80
2021/01/14 05:02:58;;;;;;;6.70;3.67;;;;;;;0.99;87.64;98973.53;5105958;28;20098;-79
2021/01/14 05:05:25;;;;;;;7.22;3.90;;;;;;;1.00;87.84;98967.22;5126314;27;20103;-80
2021/01/14 05:08:05;;;;;;;5.53;3.90;;;;;;;0.99;87.83;98973.53;5132130;27;20040;-80
2021/01/14 05:10:33;;;;;;;7.45;3.55;;;;;;;1.00;87.74;98974.41;5117263;28;20044;-80
2021/01/14 05:13:00;;;;;;;5.00;3.35;;;;;;;1.01;87.72;98987.66;5115884;28;20079;-79
2021/01/14 05:15:29;;;;;;;6.53;4.03;;;;;;;0.98;87.62;98990.59;5112643;28;20130;-80
2021/01/14 05:17:57;;;;;;;5.38;3.40;;;;;;;0.83;87.60;98967.78;5106063;28;20056;-82
2021/01/14 05:20:23;;;;;;;6.85;4.18;;;;;;;0.86;87.31;98978.25;5114502;27;20051;-82
2021/01/14 05:22:56;;;;;;;7.97;4.43;;;;;;;0.97;87.73;98980.03;5127883;27;20051;-80
2021/01/14 05:25:23;;;;;;;6.38;3.90;;;;;;;0.97;87.10;98990.72;5116809;28;20054;-80
2021/01/14 05:27:49;;;;;;;13.38;4.00;;;;;;;0.92;87.64;99017.00;5113821;27;20051;-81
2021/01/14 05:30:16;;;;;;;8.05;4.30;;;;;;;0.93;87.73;99027.59;5115053;28;20051;-80
2021/01/14 05:32:45;;;;;;;7.55;3.75;;;;;;;0.94;87.83;99028.47;5112713;27;20493;-81
2021/01/14 05:35:13;;;;;;;6.80;4.07;;;;;;;0.87;87.37;99030.78;5114849;28;20043;-80
2021/01/14 05:37:42;;;;;;;9.00;4.25;;;;;;;0.87;87.37;99028.09;5119147;27;20130;-80
2021/01/14 05:40:11;;;;;;;7.45;4.00;;;;;;;0.69;87.36;99001.91;5135064;27;20062;-81
2021/01/14 05:42:38;;;;;;;4.47;3.25;;;;;;;0.85;87.65;99027.38;5121641;27;20198;-80
2021/01/14 05:45:07;;;;;;;9.15;3.58;;;;;;;0.82;87.70;99016.94;5108305;28;20105;-80
2021/01/14 05:47:33;;;;;;;9.68;4.57;;;;;;;0.70;87.36;99008.09;5103120;28;20078;-80
2021/01/14 05:50:03;;;;;;;5.57;3.70;;;;;;;0.57;87.52;98985.97;5108784;27;20056;-80
2021/01/14 05:52:31;;;;;;;13.00;4.00;;;;;;;0.73;87.39;99009.66;5120585;27;20070;-80
2021/01/14 05:55:00;;;;;;;12.07;4.07;;;;;;;0.56;87.73;98984.28;5116518;27;20052;-80
2021/01/14 05:57:31;;;;;;;7.30;3.77;;;;;;;0.59;87.78;98995.59;5117359;27;20043;-81
2021/01/14 06:00:00;;;;;;;6.13;3.45;;;;;;;0.62;87.33;99010.56;5108012;27;20051;-80
2021/01/14 06:02:31;;;;;;;6.17;3.60;;;;;;;0.43;87.97;98979.09;5108032;27;20058;-80
2021/01/14 06:04:57;;;;;;;;;;;;;;;0.52;89.30;99021.13;5131768;27;20047;-80
2021/01/14 06:07:35;;;;;;;5.57;3.03;;;;;;;0.47;89.38;99031.38;5122503;27;20329;-80
2021/01/14 06:10:01;;;;;;;12.00;3.53;;;;;;;0.46;88.99;99029.66;5134061;27;20410;-80
2021/01/14 06:12:28;;;;;;;9.00;4.20;;;;;;;0.43;88.12;99017.38;5110308;27;20062;-81
2021/01/14 06:14:54;;;;;;;5.10;3.43;;;;;;;0.31;87.78;99008.50;5124417;27;20410;-81
2021/01/14 06:17:31;;;;;;;9.63;3.17;;;;;;;0.47;87.73;99021.50;5106798;28;20509;-81
2021/01/14 06:20:06;;;;;;;6.63;3.17;;;;;;;0.40;88.77;99027.47;5114743;27;20044;-80
2021/01/14 06:22:35;;;;;;;7.20;3.37;;;;;;;0.17;89.56;99003.44;5116435;27;20552;-81
2021/01/14 06:25:04;;;;;;;5.60;4.00;;;;;;;0.14;90.49;99012.56;5114042;27;20051;-80
2021/01/14 06:27:30;;;;;;;6.78;3.35;;;;;;;0.04;90.67;99008.06;5113123;27;20040;-81
2021/01/14 06:30:01;;;;;;;8.87;3.47;;;;;;;0.11;90.67;99033.34;5122498;27;20055;-81
2021/01/14 06:32:27;;;;;;;5.50;3.50;;;;;;;0.17;90.63;99044.38;5113387;27;20472;-80
2021/01/14 06:34:54;;;;;;;9.33;3.63;;;;;;;0.21;90.51;99053.03;5112633;27;20081;-80
2021/01/14 06:37:24;;;;;;;5.70;3.50;;;;;;;0.25;90.87;99061.66;5126895;27;20043;-81
2021/01/14 06:39:53;;;;;;;5.77;4.00;;;;;;;0.21;90.68;99060.19;5113755;27;20482;-80
2021/01/14 06:42:23;;;;;;;7.70;4.03;;;;;;;0.14;91.06;99062.50;5131742;27;20403;-79
2021/01/14 06:44:54;;;;;;;5.38;3.95;;;;;;;0.09;91.28;99057.53;5117325;27;20145;-81
2021/01/14 06:47:38;;;;;;;5.70;3.53;;;;;;;0.15;91.24;99067.72;5123179;27;20050;-80
2021/01/14 06:50:18;;;;;;;6.53;4.30;;;;;;;0.04;91.34;99059.69;5113795;27;20040;-79
2021/01/14 06:52:49;;;;;;;6.03;4.50;;;;;;;0.01;91.31;99059.09;5119677;27;20399;-79
2021/01/14 06:55:17;;;;;;;9.87;4.67;;;;;;;-0.08;91.59;99061.50;5123495;27;20100;-79
2021/01/14 06:58:04;;;;;;;5.97;3.87;;;;;;;0.05;91.19;99090.81;5111547;28;20075;-79
2021/01/14 07:00:32;;;;;;;7.30;4.53;;;;;;;-0.05;91.19;99065.75;5120686;27;20048;-79
2021/01/14 07:03:18;;;;;;;5.83;4.20;;;;;;;0.01;91.40;99086.66;5104141;27;20052;-79
2021/01/14 07:06:15;;;;;;;6.67;4.33;;;;;;;-0.10;91.69;99051.91;5106935;27;20490;-79
2021/01/14 07:08:42;;;;;;;5.73;4.13;;;;;;;-0.10;91.26;99066.13;5094794;28;20546;-79
2021/01/14 07:11:12;;;;;;;11.30;4.83;;;;;;;-0.08;90.60;99061.50;5110541;27;20051;-79
2021/01/14 07:13:40;;;;;;;7.82;4.47;;;;;;;-0.14;90.46;99055.78;5114087;27;20048;-80
2021/01/14 07:16:10;;;;;;;7.17;4.77;;;;;;;0.00;91.04;99079.63;5112499;28;20050;-79
2021/01/14 07:18:37;;;;;;;7.28;4.82;;;;;;;-0.05;90.42;99074.63;5124836;27;20072;-80
2021/01/14 07:21:15;;;;;;;7.47;5.20;;;;;;;0.16;90.78;99106.84;5125394;27;20047;-79
2021/01/14 07:23:49;;;;;;;12.67;5.00;;;;;;;0.05;90.60;99092.63;5122791;27;20047;-80
2021/01/14 07:26:17;;;;;;;6.83;4.50;;;;;;;0.05;90.69;99096.16;5114306;27;20067;-79
2021/01/14 07:28:44;;;;;;;9.13;5.00;;;;;;;-0.04;90.22;99089.69;5113871;28;20054;-79
2021/01/14 07:31:22;;;;;;;9.03;4.90;;;;;;;0.04;90.69;99109.63;5108843;28;20058;-80
2021/01/14 07:33:48;;;;;;;7.87;4.90;;;;;;;0.08;91.03;99117.28;5114744;28;20054;-80
2021/01/14 07:36:23;;;;;;;5.43;4.33;;;;;;;0.16;90.42;99138.91;5114245;28;20047;-79
2021/01/14 07:38:51;;;;;;;7.60;5.57;;;;;;;0.11;90.87;99129.59;5113071;27;20055;-79
2021/01/14 07:41:18;;;;;;;8.50;5.23;;;;;;;-0.04;90.77;99123.59;5112904;27;20066;-79
2021/01/14 07:43:45;;;;;;;11.97;5.23;;;;;;;0.02;90.73;99122.28;5112879;28;20074;-79
2021/01/14 07:46:16;;;;;;;7.27;4.87;;;;;;;0.00;91.02;99133.09;5113533;27;20083;-79
2021/01/14 07:48:43;;;;;;;10.93;5.50;;;;;;;-0.05;90.94;99125.41;5112615;28;20086;-79
2021/01/14 07:51:09;;;;;;;13.70;7.03;;;;;;;-0.13;91.57;99135.84;5117460;27;20039;-79
2021/01/14 07:53:36;;;;;;;12.33;7.47;;;;;;;-0.12;91.57;99128.66;5132456;27;20100;-79
2021/01/14 07:56:28;;;;;;;15.67;7.90;;;;;;;-0.04;91.24;99143.16;5130828;27;20039;-79
2021/01/14 07:58:58;;;;;;;16.07;8.13;;;;;;;-0.07;91.77;99143.38;5091965;28;20051;-79
2021/01/14 08:01:25;;;;;;;15.32;7.68;;;;;;;-0.09;91.52;99134.66;5113109;27;20180;-79
2021/01/14 08:03:51;;;;;;;17.23;7.00;;;;;;;-0.09;91.41;99131.97;5112554;28;20048;-79
2021/01/14 08:06:21;;;;;;;16.17;7.63;;;;;;;0.03;91.28;99156.91;5128690;27;20100;-80
2021/01/14 08:09:03;;;;;;;11.70;7.33;;;;;;;0.01;91.09;99152.63;5130164;27;20062;-80
2021/01/14 08:11:32;;;;;;;13.77;7.53;;;;;;;0.13;90.37;99167.72;5125983;27;20060;-80
2021/01/14 08:14:09;;;;;;;12.90;7.93;;;;;;;0.16;90.09;99164.81;5112878;28;20058;-79
2021/01/14 08:16:41;;;;;;;14.73;7.33;;;;;;;0.18;90.21;99149.50;5114754;28;20418;-79
2021/01/14 08:19:09;;;;;;;13.73;8.27;;;;;;;-0.03;90.25;99135.97;5120537;27;20051;-79
2021/01/14 08:21:36;;;;;;;11.70;6.93;;;;;;;-0.09;90.13;99150.69;5112182;28;20047;-79
2021/01/14 08:24:02;;;;;;;13.57;6.73;;;;;;;0.15;89.75;99166.66;5126017;28;20122;-79
2021/01/14 08:26:29;;;;;;;18.33;8.23;;;;;;;0.11;90.30;99161.66;5122859;28;20055;-79
2021/01/14 08:29:00;;;;;;;23.63;7.40;;;;;;;0.15;89.69;99176.47;5124534;28;20044;-81
2021/01/14 08:31:36;;;;;;;9.95;5.82;;;;;;;0.11;89.32;99161.66;5115737;28;20047;-81
2021/01/14 08:34:05;;;;;;;17.17;6.43;;;;;;;0.16;88.66;99151.44;5109796;28;20044;-81
2021/01/14 08:36:40;;;;;;;8.73;5.20;;;;;;;0.07;88.81;99165.53;5093319;28;20408;-81
2021/01/14 08:39:09;;;;;;;17.30;6.50;;;;;;;0.18;88.42;99173.56;5092992;28;20050;-80
2021/01/14 08:41:36;;;;;;;16.10;6.60;;;;;;;0.05;88.19;99165.66;5107926;28;20052;-80
2021/01/14 08:44:06;;;;;;;8.75;6.10;;;;;;;0.14;87.27;99156.06;5098861;28;20105;-80
2021/01/14 08:46:38;;;;;;;8.07;4.78;;;;;;;0.10;87.95;99173.31;5095119;28;20093;-81
2021/01/14 08:49:12;;;;;;;9.90;5.57;;;;;;;0.27;87.48;99188.91;5106119;28;20048;-81
2021/01/14 08:51:39;;;;;;;10.90;4.83;;;;;;;0.24;87.71;99180.25;5097678;28;20047;-81
2021/01/14 08:54:10;;;;;;;10.60;6.10;;;;;;;0.17;87.89;99185.25;5116128;28;20058;-81
2021/01/14 08:56:36;;;;;;;13.00;6.13;;;;;;;0.27;87.61;99178.22;5096818;28;20127;-80
2021/01/14 08:59:16;;;;;;;16.60;6.93;;;;;;;0.33;87.68;99179.53;5091091;28;20052;-80
2021/01/14 09:01:43;;;;;;;8.20;5.33;;;;;;;0.33;87.94;99172.38;5100245;28;20055;-80
2021/01/14 09:04:10;;;;;;;8.77;5.50;;;;;;;0.35;87.79;99185.66;5104792;28;20286;-80
2021/01/14 09:06:38;;;;;;;8.07;5.57;;;;;;;0.45;87.08;99189.31;5093046;28;20044;-80
2021/01/14 09:09:09;;;;;;;18.50;7.90;;;;;;;0.54;87.13;99187.72;5091546;28;20480;-80
2021/01/14 09:11:36;;;;;;;12.47;6.90;;;;;;;0.44;86.59;99190.28;5092938;28;20059;-80
2021/01/14 09:14:08;;;;;;;17.10;8.33;;;;;;;0.51;87.31;99201.34;5097447;28;20039;-80
2021/01/14 09:16:37;;;;;;;15.35;7.47;;;;;;;0.39;86.78;99187.09;5092684;28;20420;-80
2021/01/14 09:19:11;;;;;;;18.57;7.53;;;;;;;0.45;87.11;99207.16;5092841;28;20056;-80
2021/01/14 09:21:38;;;;;;;19.00;10.57;;;;;;;0.42;86.74;99199.38;5094940;28;20476;-80
2021/01/14 09:24:09;;;;;;;17.20;7.18;;;;;;;0.44;87.00;99197.47;5096846;28;20052;-81
2021/01/14 09:26:38;;;;;;;15.07;6.85;;;;;;;0.64;87.09;99223.47;5093208;28;20116;-80
2021/01/14 09:29:05;;;;;;;13.63;6.47;;;;;;;0.56;87.56;99225.91;5098681;28;20040;-81
2021/01/14 09:31:33;;;;;;;13.60;7.43;;;;;;;0.60;87.90;99231.88;5110620;27;20500;-81
2021/01/14 09:34:03;;;;;;;18.97;9.07;;;;;;;0.65;87.99;99240.41;5101288;27;20048;-81
2021/01/14 09:36:30;;;;;;;14.00;6.63;;;;;;;0.51;87.52;99228.94;5095143;27;20139;-80
2021/01/14 09:38:57;;;;;;;16.53;7.63;;;;;;;0.62;87.67;99254.88;5095172;28;20419;-80
2021/01/14 09:41:29;;;;;;;20.27;8.32;;;;;;;0.72;87.92;99255.00;5096429;28;20044;-80
2021/01/14 09:43:57;;;;;;;14.50;7.75;;;;;;;0.75;87.36;99259.25;5107104;27;20059;-80
2021/01/14 09:46:25;;;;;;;14.27;7.93;;;;;;;0.77;86.83;99263.53;5111805;27;20080;-80
2021/01/14 09:48:58;;;;;;;18.85;7.25;;;;;;;0.62;86.88;99249.50;5094529;28;20097;-80
2021/01/14 09:51:25;;;;;;;10.02;6.72;;;;;;;0.70;86.63;99252.44;5101575;27;20043;-80
2021/01/14 09:53:51;;;;;;;11.05;5.88;;;;;;;0.73;86.01;99251.34;5094046;28;20134;-80
2021/01/14 09:56:20;;;;;;;22.67;9.98;;;;;;;0.64;86.18;99238.69;5098805;28;20047;-80
2021/01/14 09:58:53;;;;;;;15.53;9.93;;;;;;;0.70;87.27;99268.50;5101652;28;20044;-80
2021/01/14 10:01:30;;;;;;;12.57;7.10;;;;;;;0.66;87.30;99269.72;5113493;28;20217;-80
2021/01/14 10:04:05;;;;;;;10.85;7.30;;;;;;;0.74;87.22;99274.47;5115908;28;20043;-80
2021/01/14 10:06:38;;;;;;;11.07;7.00;;;;;;;0.60;86.89;99247.91;5095513;28;20048;-80
2021/01/14 10:09:07;;;;;;;18.15;7.57;;;;;;;0.69;86.76;99257.91;5105424;27;20051;-80
2021/01/14 10:11:34;;;;;;;13.80;6.68;;;;;;;0.74;86.12;99269.13;5101120;28;20048;-80
2021/01/14 10:14:01;;;;;;;14.02;7.25;;;;;;;0.66;85.22;99255.47;5095749;28;20089;-81
2021/01/14 10:16:29;;;;;;;25.10;8.13;;;;;;;0.85;85.64;99270.94;5096730;28;20081;-80
2021/01/14 10:19:09;;;;;;;15.30;7.22;;;;;;;0.79;85.04;99255.38;5093516;28;20044;-80
2021/01/14 10:21:37;;;;;;;13.50;6.00;;;;;;;0.89;84.72;99272.41;5097385;28;20380;-80
2021/01/14 10:24:05;;;;;;;10.43;6.72;;;;;;;0.71;84.62;99264.00;5101768;27;20387;-80
2021/01/14 10:26:33;;;;;;;11.32;5.30;;;;;;;0.82;84.99;99265.84;5098357;28;20047;-80
2021/01/14 10:29:03;;;;;;;9.63;6.63;;;;;;;1.03;84.47;99287.38;5117597;27;20130;-80
2021/01/14 10:31:38;;;;;;;8.23;5.93;;;;;;;0.84;85.37;99275.47;5115518;27;20067;-80
2021/01/14 10:34:06;;;;;;;10.88;5.40;;;;;;;0.98;84.29;99294.91;5094396;27;20051;-80
2021/01/14 10:36:57;;;;;;;11.48;6.00;;;;;;;0.93;84.75;99275.69;5094783;28;20051;-80
2021/01/14 10:39:38;;;;;;;19.58;5.75;;;;;;;0.96;84.30;99286.16;5092542;27;20048;-80
2021/01/14 10:42:27;;;;;;;23.15;7.18;;;;;;;1.10;83.95;99304.69;5099810;28;20044;-80
2021/01/14 10:44:53;;;;;;;47.00;8.68;;;;;;;0.99;84.51;99296.63;5095982;27;20416;-80
2021/01/14 10:47:21;;;;;;;20.33;6.70;;;;;;;0.91;84.56;99294.56;5094036;28;20056;-80
2021/01/14 10:49:47;;;;;;;18.45;6.57;;;;;;;0.88;85.25;99301.00;5097477;28;20109;-80
2021/01/14 10:52:19;;;;;;;13.63;6.05;;;;;;;0.85;84.61;99295.88;5093952;28;20051;-80
2021/01/14 10:54:58;;;;;;;14.02;5.68;;;;;;;0.80;83.00;99270.44;5094821;28;20109;-81
2021/01/14 10:57:40;;;;;;;11.88;5.85;;;;;;;1.00;82.69;99311.72;5114186;28;20047;-80
2021/01/14 11:00:16;;;;;;;10.20;5.17;;;;;;;0.88;82.78;99314.38;5107255;27;20043;-80
2021/01/14 11:02:45;;;;;;;13.60;5.37;;;;;;;0.83;81.99;99286.28;5100630;27;20056;-80
2021/01/14 11:05:12;;;;;;;14.77;6.17;;;;;;;1.08;81.78;99325.34;5102128;28;20126;-80
2021/01/14 11:07:40;;;;;;;16.83;5.93;;;;;;;0.81;82.21;99294.44;5098021;27;20134;-80
2021/01/14 11:10:07;;;;;;;22.80;6.80;;;;;;;1.05;82.89;99297.00;5093276;28;20048;-80
2021/01/14 11:12:34;;;;;;;18.17;6.43;;;;;;;1.20;82.45;99302.13;5104156;28;20123;-80
2021/01/14 11:15:00;;;;;;;23.80;8.93;;;;;;;1.35;81.75;99289.31;5110827;28;20051;-80
2021/01/14 11:17:27;;;;;;;17.17;6.60;;;;;;;1.22;81.54;99274.25;5104049;27;20052;-80
2021/01/14 11:19:53;;;;;;;12.75;6.00;;;;;;;1.30;82.16;99297.72;5092854;28;20492;-80
2021/01/14 11:22:19;;;;;;;11.57;5.20;;;;;;;1.14;81.74;99275.81;5093066;28;20052;-80
2021/01/14 11:24:52;;;;;;;11.13;5.15;;;;;;;1.10;80.36;99282.38;5101841;28;20043;-80
2021/01/14 11:27:19;;;;;;;16.20;6.15;;;;;;;1.04;81.59;99286.44;5093482;28;20105;-80
2021/01/14 11:29:45;;;;;;;10.82;4.93;;;;;;;1.05;80.62;99275.59;5093058;28;20080;-80
2021/01/14 11:32:12;;;;;;;8.60;5.23;;;;;;;1.16;79.67;99303.31;5096850;28;20122;-80
2021/01/14 11:34:38;;;;;;;10.38;6.43;;;;;;;1.01;81.47;99292.88;5112835;27;20381;-80
2021/01/14 11:37:06;;;;;;;12.93;5.32;;;;;;;1.04;80.74;99297.97;5092950;28;20052;-80
2021/01/14 11:39:32;;;;;;;16.13;5.82;;;;;;;0.91;81.87;99267.78;5111691;28;20104;-80
2021/01/14 11:41:59;;;;;;;15.57;5.80;;;;;;;1.12;80.55;99289.34;5094179;27;20036;-80
2021/01/14 11:44:25;;;;;;;15.03;6.13;;;;;;;0.98;81.00;99277.03;5091056;28;20101;-80
2021/01/14 11:46:52;;;;;;;20.17;5.13;;;;;;;1.23;79.33;99296.50;5092764;27;20051;-80
2021/01/14 11:49:18;;;;;;;9.82;4.13;;;;;;;1.08;78.88;99265.59;5098576;27;20131;-80